createdAt,value
2017-09-12T00:00:05.972Z,0
2017-09-12T00:01:07.374Z,0
2017-09-12T00:02:28.885Z,0
2017-09-12T00:03:30.287Z,0
2017-09-12T00:04:51.778Z,0
2017-09-12T00:05:53.180Z,0
2017-09-12T00:07:14.688Z,0
2017-09-12T00:08:16.095Z,0
2017-09-12T00:09:37.601Z,0
2017-09-12T00:10:39.006Z,0
2017-09-12T00:12:00.496Z,0
2017-09-12T00:13:01.897Z,0
2017-09-12T00:14:23.409Z,0
2017-09-12T00:15:24.814Z,0
2017-09-12T00:16:46.299Z,0
2017-09-12T00:17:47.700Z,0
2017-09-12T00:19:09.214Z,0
2017-09-12T00:20:10.618Z,0
2017-09-12T00:21:32.108Z,0
2017-09-12T00:22:33.511Z,0
2017-09-12T00:23:55.025Z,0
2017-09-12T00:24:56.427Z,0
2017-09-12T00:26:17.924Z,0
2017-09-12T00:27:19.329Z,0
2017-09-12T00:28:40.838Z,0
2017-09-12T00:29:42.245Z,0
2017-09-12T00:31:03.736Z,0
2017-09-12T00:32:05.137Z,0
2017-09-12T00:33:26.649Z,0
2017-09-12T00:34:28.057Z,0
2017-09-12T00:35:49.544Z,0
2017-09-12T00:36:50.946Z,0
2017-09-12T00:38:12.458Z,0
2017-09-12T00:39:13.861Z,0
2017-09-12T00:40:35.355Z,0
2017-09-12T00:41:36.755Z,0
2017-09-12T00:42:58.266Z,0
2017-09-12T00:43:59.668Z,0
2017-09-12T00:45:21.163Z,0
2017-09-12T00:46:22.569Z,0
2017-09-12T00:47:44.079Z,0
2017-09-12T00:48:45.481Z,0
2017-09-12T00:50:06.970Z,0
2017-09-12T00:51:08.374Z,0
2017-09-12T00:52:29.869Z,0
2017-09-12T00:53:31.271Z,0
2017-09-12T00:54:52.790Z,0
2017-09-12T00:55:54.185Z,0
2017-09-12T00:57:15.681Z,0
2017-09-12T00:58:17.081Z,0
2017-09-12T00:59:38.592Z,0
2017-09-12T01:00:39.995Z,0
2017-09-12T01:02:01.485Z,0
2017-09-12T01:03:02.887Z,0
2017-09-12T01:04:24.396Z,0
2017-09-12T01:05:25.796Z,0
2017-09-12T01:06:47.287Z,0
2017-09-12T01:07:48.688Z,0
2017-09-12T01:09:10.200Z,0
2017-09-12T01:10:11.602Z,0
2017-09-12T01:11:33.093Z,0
2017-09-12T01:12:34.493Z,0
2017-09-12T01:13:56.006Z,0
2017-09-12T01:14:57.407Z,0
2017-09-12T01:16:18.898Z,0
2017-09-12T01:17:20.300Z,0
2017-09-12T01:18:41.812Z,0
2017-09-12T01:19:43.219Z,0
2017-09-12T01:21:04.707Z,0
2017-09-12T01:22:06.107Z,0
2017-09-12T01:23:27.617Z,0
2017-09-12T01:24:29.020Z,0
2017-09-12T01:25:50.514Z,0
2017-09-12T01:26:51.916Z,0
2017-09-12T01:28:13.429Z,0
2017-09-12T01:29:14.832Z,0
2017-09-12T01:30:36.323Z,0
2017-09-12T01:31:37.724Z,0
2017-09-12T01:32:59.223Z,0
2017-09-12T01:34:00.622Z,0
2017-09-12T01:35:22.133Z,0
2017-09-12T01:36:23.534Z,0
2017-09-12T01:37:45.025Z,0
2017-09-12T01:38:46.427Z,0
2017-09-12T01:40:07.936Z,0
2017-09-12T01:41:09.342Z,0
2017-09-12T01:42:30.832Z,0
2017-09-12T01:43:32.231Z,0
2017-09-12T01:44:53.743Z,0
2017-09-12T01:45:55.144Z,0
2017-09-12T01:47:16.639Z,0
2017-09-12T01:48:18.040Z,0
2017-09-12T01:49:39.551Z,0
2017-09-12T01:50:40.954Z,0
2017-09-12T01:52:02.444Z,0
2017-09-12T01:53:03.845Z,0
2017-09-12T01:54:25.362Z,0
2017-09-12T01:55:26.763Z,0
2017-09-12T01:56:48.252Z,0
2017-09-12T01:57:49.657Z,0
2017-09-12T01:59:11.167Z,0
2017-09-12T02:00:12.569Z,0
2017-09-12T02:01:34.058Z,0
2017-09-12T02:02:35.460Z,0
2017-09-12T02:03:56.971Z,0
2017-09-12T02:04:58.373Z,0
2017-09-12T02:06:19.861Z,0
2017-09-12T02:07:21.261Z,0
2017-09-12T02:08:42.776Z,0
2017-09-12T02:09:44.180Z,0
2017-09-12T02:11:05.667Z,0
2017-09-12T02:12:07.070Z,0
2017-09-12T02:13:28.582Z,0
2017-09-12T02:14:29.986Z,0
2017-09-12T02:15:51.490Z,0
2017-09-12T02:16:52.891Z,0
2017-09-12T02:18:14.380Z,0
2017-09-12T02:19:15.783Z,0
2017-09-12T02:20:37.292Z,0
2017-09-12T02:21:38.693Z,0
2017-09-12T02:23:00.182Z,0
2017-09-12T02:24:01.582Z,0
2017-09-12T02:25:23.095Z,0
2017-09-12T02:26:24.499Z,0
2017-09-12T02:27:45.985Z,0
2017-09-12T02:28:47.389Z,0
2017-09-12T02:30:08.900Z,0
2017-09-12T02:31:10.305Z,0
2017-09-12T02:32:31.790Z,0
2017-09-12T02:33:33.192Z,0
2017-09-12T02:34:54.702Z,0
2017-09-12T02:35:56.103Z,0
2017-09-12T02:37:17.594Z,0
2017-09-12T02:38:19.000Z,0
2017-09-12T02:39:40.511Z,0
2017-09-12T02:40:41.918Z,0
2017-09-12T02:42:03.403Z,0
2017-09-12T02:43:04.808Z,0
2017-09-12T02:44:26.329Z,0
2017-09-12T02:45:27.722Z,0
2017-09-12T02:46:49.215Z,0
2017-09-12T02:47:50.615Z,0
2017-09-12T02:49:12.131Z,0
2017-09-12T02:50:13.534Z,0
2017-09-12T02:51:35.024Z,0
2017-09-12T02:52:36.425Z,0
2017-09-12T02:53:57.937Z,0
2017-09-12T02:54:59.337Z,0
2017-09-12T02:56:20.828Z,0
2017-09-12T02:57:22.231Z,0
2017-09-12T02:58:43.722Z,0
2017-09-12T02:59:45.123Z,0
2017-09-12T03:01:06.631Z,0
2017-09-12T03:02:08.034Z,0
2017-09-12T03:03:29.528Z,0
2017-09-12T03:04:30.928Z,0
2017-09-12T03:05:52.440Z,0
2017-09-12T03:06:53.841Z,0
2017-09-12T03:08:15.332Z,0
2017-09-12T03:09:16.737Z,0
2017-09-12T03:10:38.249Z,0
2017-09-12T03:11:39.652Z,0
2017-09-12T03:13:01.147Z,0
2017-09-12T03:14:02.548Z,0
2017-09-12T03:15:24.062Z,0
2017-09-12T03:16:25.464Z,0
2017-09-12T03:17:46.953Z,0
2017-09-12T03:18:48.355Z,0
2017-09-12T03:20:09.868Z,0
2017-09-12T03:21:11.268Z,0
2017-09-12T03:22:32.760Z,0
2017-09-12T03:23:34.160Z,0
2017-09-12T03:24:55.677Z,0
2017-09-12T03:25:57.079Z,0
2017-09-12T03:27:18.609Z,0
2017-09-12T03:28:20.011Z,0
2017-09-12T03:29:41.522Z,0
2017-09-12T03:30:42.924Z,0
2017-09-12T03:32:04.607Z,0
2017-09-12T03:33:06.009Z,0
2017-09-12T03:34:27.524Z,0
2017-09-12T03:35:28.924Z,0
2017-09-12T03:36:50.419Z,0
2017-09-12T03:37:51.822Z,0
2017-09-12T03:39:13.334Z,0
2017-09-12T03:40:14.734Z,0
2017-09-12T03:41:36.227Z,0
2017-09-12T03:42:37.628Z,0
2017-09-12T03:43:59.120Z,0
2017-09-12T03:45:00.519Z,0
2017-09-12T03:46:22.035Z,0
2017-09-12T03:47:23.437Z,0
2017-09-12T03:48:44.926Z,0
2017-09-12T03:49:46.329Z,0
2017-09-12T03:51:07.843Z,0
2017-09-12T03:52:09.247Z,0
2017-09-12T03:53:30.735Z,0
2017-09-12T03:54:32.135Z,0
2017-09-12T03:55:53.652Z,0
2017-09-12T03:56:55.056Z,0
2017-09-12T03:58:16.609Z,0
2017-09-12T03:59:17.969Z,0
2017-09-12T04:00:39.480Z,0
2017-09-12T04:01:40.882Z,0
2017-09-12T04:03:02.374Z,0
2017-09-12T04:04:03.775Z,0
2017-09-12T04:05:25.284Z,0
2017-09-12T04:06:26.688Z,0
2017-09-12T04:07:48.176Z,0
2017-09-12T04:08:49.579Z,0
2017-09-12T04:10:11.090Z,0
2017-09-12T04:11:12.493Z,0
2017-09-12T04:12:33.990Z,0
2017-09-12T04:13:35.395Z,0
2017-09-12T04:14:56.911Z,0
2017-09-12T04:15:58.314Z,0
2017-09-12T04:17:19.804Z,0
2017-09-12T04:18:21.206Z,0
2017-09-12T04:19:42.704Z,0
2017-09-12T04:20:44.105Z,0
2017-09-12T04:22:05.617Z,0
2017-09-12T04:23:07.023Z,0
2017-09-12T04:24:28.512Z,0
2017-09-12T04:25:29.910Z,0
2017-09-12T04:26:51.417Z,0
2017-09-12T04:27:52.821Z,0
2017-09-12T04:29:14.314Z,0
2017-09-12T04:30:15.711Z,0
2017-09-12T04:31:37.220Z,4
2017-09-12T04:32:38.622Z,4
2017-09-12T04:34:00.116Z,0
2017-09-12T04:35:01.522Z,4
2017-09-12T04:36:23.025Z,4
2017-09-12T04:37:24.427Z,4
2017-09-12T04:38:45.921Z,4
2017-09-12T04:39:47.320Z,8
2017-09-12T04:41:08.834Z,12
2017-09-12T04:42:10.240Z,12
2017-09-12T04:43:31.732Z,16
2017-09-12T04:44:33.135Z,16
2017-09-12T04:45:54.646Z,24
2017-09-12T04:46:56.049Z,32
2017-09-12T04:48:17.537Z,36
2017-09-12T04:49:18.940Z,40
2017-09-12T04:50:40.453Z,44
2017-09-12T04:51:41.858Z,56
2017-09-12T04:53:03.349Z,64
2017-09-12T04:54:04.752Z,72
2017-09-12T04:55:26.264Z,84
2017-09-12T04:56:27.672Z,80
2017-09-12T04:57:49.159Z,96
2017-09-12T04:58:50.561Z,108
2017-09-12T05:00:12.074Z,140
2017-09-12T05:01:13.479Z,140
2017-09-12T05:02:34.972Z,140
2017-09-12T05:03:36.375Z,168
2017-09-12T05:04:57.871Z,200
2017-09-12T05:05:59.276Z,216
2017-09-12T05:07:20.794Z,208
2017-09-12T05:08:22.199Z,240
2017-09-12T05:09:43.693Z,292
2017-09-12T05:10:45.096Z,336
2017-09-12T05:12:06.616Z,380
2017-09-12T05:13:08.020Z,396
2017-09-12T05:14:29.513Z,368
2017-09-12T05:15:30.918Z,320
2017-09-12T05:16:52.439Z,288
2017-09-12T05:17:53.839Z,252
2017-09-12T05:19:15.463Z,272
2017-09-12T05:20:16.866Z,308
2017-09-12T05:21:38.380Z,336
2017-09-12T05:22:39.786Z,316
2017-09-12T05:24:01.281Z,264
2017-09-12T05:25:02.688Z,256
2017-09-12T05:26:24.202Z,260
2017-09-12T05:27:25.607Z,296
2017-09-12T05:28:47.106Z,364
2017-09-12T05:29:48.510Z,428
2017-09-12T05:31:10.024Z,420
2017-09-12T05:32:11.432Z,488
2017-09-12T05:33:32.925Z,584
2017-09-12T05:34:34.329Z,580
2017-09-12T05:35:55.849Z,464
2017-09-12T05:36:57.253Z,452
2017-09-12T05:38:18.752Z,512
2017-09-12T05:39:20.154Z,444
2017-09-12T05:40:41.667Z,468
2017-09-12T05:41:43.074Z,512
2017-09-12T05:43:04.567Z,504
2017-09-12T05:44:05.972Z,480
2017-09-12T05:45:27.470Z,512
2017-09-12T05:46:28.874Z,628
2017-09-12T05:47:50.389Z,560
2017-09-12T05:48:51.796Z,592
2017-09-12T05:50:13.294Z,600
2017-09-12T05:51:14.699Z,700
2017-09-12T05:52:36.209Z,568
2017-09-12T05:53:37.616Z,540
2017-09-12T05:54:59.111Z,652
2017-09-12T05:56:00.517Z,696
2017-09-12T05:57:22.030Z,772
2017-09-12T05:58:23.438Z,904
2017-09-12T05:59:44.934Z,1120
2017-09-12T06:00:46.342Z,1116
2017-09-12T06:02:07.861Z,1240
2017-09-12T06:03:09.268Z,1152
2017-09-12T06:04:30.763Z,1528
2017-09-12T06:05:32.169Z,1780
2017-09-12T06:06:53.685Z,1864
2017-09-12T06:07:55.092Z,1768
2017-09-12T06:09:16.592Z,1496
2017-09-12T06:10:17.997Z,1432
2017-09-12T06:11:39.514Z,1260
2017-09-12T06:12:40.922Z,1336
2017-09-12T06:14:02.422Z,1408
2017-09-12T06:15:03.830Z,1124
2017-09-12T06:16:25.345Z,1176
2017-09-12T06:17:26.753Z,1248
2017-09-12T06:18:48.245Z,1376
2017-09-12T06:19:49.650Z,1468
2017-09-12T06:21:11.166Z,1616
2017-09-12T06:22:12.572Z,1620
2017-09-12T06:23:34.073Z,1848
2017-09-12T06:24:35.478Z,2124
2017-09-12T06:25:56.995Z,2824
2017-09-12T06:26:58.404Z,2868
2017-09-12T06:28:20.083Z,3200
2017-09-12T06:29:21.491Z,3464
2017-09-12T06:30:42.989Z,2400
2017-09-12T06:31:44.391Z,1912
2017-09-12T06:33:05.908Z,2388
2017-09-12T06:34:07.316Z,3344
2017-09-12T06:35:28.815Z,2448
2017-09-12T06:36:30.220Z,3072
2017-09-12T06:37:51.735Z,3468
2017-09-12T06:38:53.146Z,3984
2017-09-12T06:40:14.650Z,3364
2017-09-12T06:41:16.054Z,3448
2017-09-12T06:42:37.569Z,3200
2017-09-12T06:43:38.979Z,3808
2017-09-12T06:45:00.481Z,4604
2017-09-12T06:46:01.887Z,4652
2017-09-12T06:47:23.405Z,5452
2017-09-12T06:48:24.815Z,5768
2017-09-12T06:49:46.903Z,5012
2017-09-12T06:50:48.308Z,4108
2017-09-12T06:52:10.204Z,4780
2017-09-12T06:53:11.589Z,3444
2017-09-12T06:54:33.098Z,3648
2017-09-12T06:55:34.508Z,3560
2017-09-12T06:56:56.028Z,2872
2017-09-12T06:57:57.433Z,2720
2017-09-12T06:59:18.931Z,3020
2017-09-12T07:00:20.338Z,3216
2017-09-12T07:01:41.858Z,4260
2017-09-12T07:02:43.267Z,4416
2017-09-12T07:04:04.770Z,5960
2017-09-12T07:05:06.179Z,5888
2017-09-12T07:06:27.694Z,5284
2017-09-12T07:07:29.105Z,3944
2017-09-12T07:08:50.605Z,3740
2017-09-12T07:09:52.010Z,2456
2017-09-12T07:11:13.530Z,2916
2017-09-12T07:12:14.938Z,3664
2017-09-12T07:13:36.436Z,2824
2017-09-12T07:14:37.848Z,2564
2017-09-12T07:15:59.395Z,2528
2017-09-12T07:17:00.804Z,3840
2017-09-12T07:18:22.333Z,5216
2017-09-12T07:19:23.733Z,5348
2017-09-12T07:20:45.234Z,7464
2017-09-12T07:21:46.638Z,5240
2017-09-12T07:23:08.155Z,4152
2017-09-12T07:24:09.565Z,4588
2017-09-12T07:25:31.066Z,4272
2017-09-12T07:26:32.475Z,2588
2017-09-12T07:27:53.992Z,2208
2017-09-12T07:28:55.405Z,2028
2017-09-12T07:30:16.907Z,2472
2017-09-12T07:31:18.314Z,1448
2017-09-12T07:32:39.832Z,984
2017-09-12T07:33:41.239Z,1112
2017-09-12T07:35:02.737Z,1208
2017-09-12T07:36:04.147Z,1344
2017-09-12T07:37:25.673Z,1188
2017-09-12T07:38:27.078Z,1276
2017-09-12T07:39:48.577Z,1348
2017-09-12T07:40:49.984Z,1232
2017-09-12T07:42:11.502Z,1848
2017-09-12T07:43:12.910Z,2080
2017-09-12T07:44:34.415Z,2760
2017-09-12T07:45:35.822Z,4184
2017-09-12T07:46:57.343Z,7020
2017-09-12T07:47:58.751Z,8528
2017-09-12T07:49:20.252Z,6860
2017-09-12T07:50:21.659Z,7284
2017-09-12T07:51:43.180Z,7172
2017-09-12T07:52:44.589Z,7476
2017-09-12T07:54:06.087Z,6488
2017-09-12T07:55:07.495Z,6256
2017-09-12T07:56:29.030Z,6696
2017-09-12T07:57:30.425Z,6876
2017-09-12T07:58:51.925Z,8444
2017-09-12T07:59:53.332Z,9460
2017-09-12T08:01:14.835Z,7188
2017-09-12T08:02:16.243Z,6652
2017-09-12T08:03:37.763Z,5496
2017-09-12T08:04:39.173Z,5852
2017-09-12T08:06:00.675Z,7160
2017-09-12T08:07:02.085Z,8500
2017-09-12T08:08:23.606Z,7700
2017-09-12T08:09:25.014Z,7080
2017-09-12T08:10:47.011Z,9372
2017-09-12T08:11:48.421Z,9764
2017-09-12T08:13:09.945Z,8968
2017-09-12T08:14:11.355Z,8368
2017-09-12T08:15:32.858Z,6408
2017-09-12T08:16:34.267Z,5272
2017-09-12T08:17:55.787Z,4288
2017-09-12T08:18:57.198Z,3608
2017-09-12T08:20:18.702Z,2704
2017-09-12T08:21:20.112Z,2292
2017-09-12T08:22:41.634Z,1852
2017-09-12T08:23:43.043Z,1832
2017-09-12T08:25:04.546Z,1456
2017-09-12T08:26:05.955Z,1336
2017-09-12T08:27:27.480Z,1880
2017-09-12T08:28:28.889Z,2840
2017-09-12T08:29:50.397Z,4532
2017-09-12T08:30:51.807Z,4472
2017-09-12T08:32:13.330Z,5268
2017-09-12T08:33:14.738Z,5092
2017-09-12T08:34:36.238Z,4952
2017-09-12T08:35:37.646Z,4444
2017-09-12T08:36:59.167Z,6732
2017-09-12T08:38:00.578Z,7244
2017-09-12T08:39:22.082Z,7536
2017-09-12T08:40:23.492Z,8968
2017-09-12T08:41:44.991Z,6600
2017-09-12T08:42:46.401Z,5904
2017-09-12T08:44:07.925Z,6136
2017-09-12T08:45:09.334Z,7036
2017-09-12T08:46:30.836Z,4632
2017-09-12T08:47:32.245Z,3592
2017-09-12T08:48:53.767Z,3252
2017-09-12T08:49:55.178Z,3732
2017-09-12T08:51:16.679Z,5080
2017-09-12T08:52:18.087Z,4892
2017-09-12T08:53:39.609Z,3300
2017-09-12T08:54:41.018Z,3132
2017-09-12T08:56:02.521Z,4360
2017-09-12T08:57:03.931Z,5072
2017-09-12T08:58:25.453Z,7232
2017-09-12T08:59:26.863Z,6632
2017-09-12T09:00:48.367Z,6128
2017-09-12T09:01:49.774Z,7780
2017-09-12T09:03:11.297Z,7244
2017-09-12T09:04:12.706Z,7704
2017-09-12T09:05:34.209Z,6364
2017-09-12T09:06:35.618Z,7604
2017-09-12T09:07:57.148Z,7224
2017-09-12T09:08:58.552Z,4356
2017-09-12T09:10:20.051Z,3536
2017-09-12T09:11:21.461Z,3632
2017-09-12T09:12:42.981Z,3664
2017-09-12T09:13:44.394Z,4984
2017-09-12T09:15:05.895Z,7824
2017-09-12T09:16:07.304Z,8120
2017-09-12T09:17:28.830Z,5532
2017-09-12T09:18:30.240Z,4636
2017-09-12T09:19:51.744Z,4644
2017-09-12T09:20:53.151Z,4408
2017-09-12T09:22:14.669Z,4160
2017-09-12T09:23:16.079Z,3984
2017-09-12T09:24:37.580Z,4092
2017-09-12T09:25:38.990Z,5160
2017-09-12T09:27:00.490Z,6220
2017-09-12T09:28:01.906Z,6656
2017-09-12T09:29:23.423Z,8168
2017-09-12T09:30:24.831Z,9428
2017-09-12T09:31:46.331Z,11164
2017-09-12T09:32:47.740Z,11156
2017-09-12T09:34:09.264Z,9088
2017-09-12T09:35:10.674Z,7756
2017-09-12T09:36:32.186Z,4916
2017-09-12T09:37:33.596Z,3932
2017-09-12T09:38:55.118Z,4156
2017-09-12T09:39:56.529Z,6168
2017-09-12T09:41:18.028Z,7552
2017-09-12T09:42:19.458Z,7228
2017-09-12T09:43:40.961Z,7508
2017-09-12T09:44:42.371Z,6360
2017-09-12T09:46:03.884Z,5620
2017-09-12T09:47:05.295Z,5060
2017-09-12T09:48:26.816Z,4512
2017-09-12T09:49:28.229Z,5784
2017-09-12T09:50:49.728Z,5948
2017-09-12T09:51:51.142Z,5600
2017-09-12T09:53:12.660Z,5404
2017-09-12T09:54:14.070Z,5652
2017-09-12T09:55:35.579Z,5840
2017-09-12T09:56:36.988Z,5712
2017-09-12T09:57:58.510Z,7316
2017-09-12T09:58:59.920Z,8516
2017-09-12T10:00:21.421Z,9412
2017-09-12T10:01:22.830Z,9944
2017-09-12T10:02:44.354Z,10804
2017-09-12T10:03:45.764Z,10732
2017-09-12T10:05:07.271Z,9636
2017-09-12T10:06:08.681Z,8196
2017-09-12T10:07:30.222Z,6912
2017-09-12T10:08:31.633Z,6796
2017-09-12T10:09:53.136Z,8828
2017-09-12T10:10:54.546Z,8880
2017-09-12T10:12:16.048Z,7432
2017-09-12T10:13:17.458Z,7484
2017-09-12T10:14:38.983Z,7692
2017-09-12T10:15:40.396Z,7064
2017-09-12T10:17:02.392Z,6132
2017-09-12T10:18:03.803Z,6500
2017-09-12T10:19:25.330Z,6188
2017-09-12T10:20:26.740Z,7856
2017-09-12T10:21:48.243Z,8956
2017-09-12T10:22:49.653Z,7804
2017-09-12T10:24:11.176Z,7260
2017-09-12T10:25:12.587Z,6676
2017-09-12T10:26:34.093Z,7196
2017-09-12T10:27:35.501Z,10708
2017-09-12T10:28:57.026Z,11536
2017-09-12T10:29:58.439Z,11200
2017-09-12T10:31:19.949Z,10956
2017-09-12T10:32:21.362Z,11424
2017-09-12T10:33:42.885Z,10480
2017-09-12T10:34:44.299Z,8808
2017-09-12T10:36:05.804Z,7392
2017-09-12T10:37:07.216Z,10444
2017-09-12T10:38:28.742Z,11244
2017-09-12T10:39:30.155Z,8868
2017-09-12T10:40:51.660Z,6924
2017-09-12T10:41:53.070Z,7264
2017-09-12T10:43:14.597Z,10428
2017-09-12T10:44:16.009Z,10540
2017-09-12T10:45:37.516Z,11684
2017-09-12T10:46:38.931Z,11996
2017-09-12T10:48:00.456Z,9564
2017-09-12T10:49:01.869Z,9152
2017-09-12T10:50:23.876Z,6944
2017-09-12T10:51:25.293Z,6604
2017-09-12T10:52:46.798Z,6928
2017-09-12T10:53:48.211Z,7752
2017-09-12T10:55:10.224Z,7748
2017-09-12T10:56:11.636Z,7680
2017-09-12T10:57:33.145Z,7112
2017-09-12T10:58:34.557Z,8240
2017-09-12T10:59:56.087Z,8660
2017-09-12T11:00:57.499Z,7752
2017-09-12T11:02:19.009Z,7024
2017-09-12T11:03:20.418Z,7660
2017-09-12T11:04:41.947Z,8652
2017-09-12T11:05:43.359Z,8504
2017-09-12T11:07:04.861Z,7900
2017-09-12T11:08:06.274Z,8244
2017-09-12T11:09:27.801Z,8396
2017-09-12T11:10:29.213Z,6824
2017-09-12T11:11:50.721Z,7884
2017-09-12T11:12:52.134Z,7272
2017-09-12T11:14:13.658Z,7176
2017-09-12T11:15:15.070Z,5728
2017-09-12T11:16:38.069Z,4448
2017-09-12T11:17:39.480Z,5996
2017-09-12T11:19:01.005Z,7668
2017-09-12T11:20:02.431Z,7932
2017-09-12T11:21:23.924Z,7288
2017-09-12T11:22:25.334Z,7432
2017-09-12T11:23:47.353Z,5940
2017-09-12T11:24:48.764Z,5740
2017-09-12T11:26:10.275Z,9828
2017-09-12T11:27:11.687Z,9512
2017-09-12T11:28:33.215Z,8472
2017-09-12T11:29:34.626Z,7324
2017-09-12T11:30:56.625Z,6080
2017-09-12T11:31:58.038Z,6620
2017-09-12T11:33:19.567Z,8248
2017-09-12T11:34:20.979Z,7556
2017-09-12T11:35:42.492Z,7468
2017-09-12T11:36:43.905Z,6416
2017-09-12T11:38:05.413Z,5028
2017-09-12T11:39:06.823Z,4620
2017-09-12T11:40:28.348Z,4636
2017-09-12T11:41:29.759Z,4580
2017-09-12T11:42:51.275Z,4528
2017-09-12T11:43:52.680Z,4516
2017-09-12T11:45:14.226Z,5452
2017-09-12T11:46:15.621Z,6856
2017-09-12T11:47:37.624Z,6780
2017-09-12T11:48:39.033Z,5680
2017-09-12T11:50:00.562Z,6060
2017-09-12T11:51:01.983Z,7832
2017-09-12T11:52:23.480Z,7684
2017-09-12T11:53:24.890Z,6608
2017-09-12T11:54:46.423Z,5816
2017-09-12T11:55:47.832Z,4588
2017-09-12T11:57:09.341Z,4256
2017-09-12T11:58:10.754Z,4720
2017-09-12T11:59:32.278Z,5112
2017-09-12T12:00:33.690Z,4212
2017-09-12T12:01:55.198Z,3844
2017-09-12T12:02:56.603Z,4180
2017-09-12T12:04:18.129Z,4844
2017-09-12T12:05:19.541Z,4972
2017-09-12T12:06:41.050Z,4636
2017-09-12T12:07:42.462Z,4076
2017-09-12T12:09:03.987Z,4592
2017-09-12T12:10:05.397Z,4540
2017-09-12T12:11:26.902Z,3928
2017-09-12T12:12:28.312Z,3756
2017-09-12T12:13:49.864Z,4608
2017-09-12T12:14:51.247Z,4508
2017-09-12T12:16:12.759Z,4028
2017-09-12T12:17:14.165Z,5216
2017-09-12T12:18:35.691Z,3752
2017-09-12T12:19:37.100Z,3856
2017-09-12T12:20:58.603Z,3820
2017-09-12T12:22:00.014Z,3880
2017-09-12T12:23:21.524Z,5600
2017-09-12T12:24:22.938Z,5848
2017-09-12T12:25:44.454Z,7556
2017-09-12T12:26:45.867Z,9192
2017-09-12T12:28:07.372Z,6928
2017-09-12T12:29:08.783Z,6108
2017-09-12T12:30:30.305Z,6504
2017-09-12T12:31:31.718Z,7096
2017-09-12T12:32:53.228Z,8096
2017-09-12T12:33:54.637Z,7388
2017-09-12T12:35:16.166Z,6732
2017-09-12T12:36:17.576Z,7284
2017-09-12T12:37:39.573Z,8016
2017-09-12T12:38:40.987Z,8180
2017-09-12T12:40:02.509Z,7036
2017-09-12T12:41:03.919Z,6972
2017-09-12T12:42:25.422Z,6260
2017-09-12T12:43:26.833Z,4520
2017-09-12T12:44:48.381Z,3604
2017-09-12T12:45:49.775Z,3352
2017-09-12T12:47:11.277Z,3252
2017-09-12T12:48:12.686Z,3332
2017-09-12T12:49:34.215Z,3784
2017-09-12T12:50:35.627Z,4088
2017-09-12T12:51:57.135Z,3560
2017-09-12T12:52:58.545Z,3448
2017-09-12T12:54:20.072Z,3620
2017-09-12T12:55:21.482Z,3556
2017-09-12T12:56:43.482Z,3684
2017-09-12T12:57:44.891Z,3744
2017-09-12T12:59:06.421Z,3512
2017-09-12T13:00:07.830Z,4100
2017-09-12T13:01:29.335Z,3972
2017-09-12T13:02:30.745Z,4084
2017-09-12T13:03:52.247Z,4408
2017-09-12T13:04:53.658Z,4848
2017-09-12T13:06:15.181Z,4668
2017-09-12T13:07:16.593Z,5232
2017-09-12T13:08:38.104Z,5276
2017-09-12T13:09:39.514Z,5084
2017-09-12T13:11:01.037Z,6208
2017-09-12T13:12:02.452Z,6436
2017-09-12T13:13:23.952Z,5336
2017-09-12T13:14:25.363Z,5164
2017-09-12T13:15:46.885Z,4500
2017-09-12T13:16:48.366Z,4468
2017-09-12T13:18:09.871Z,4944
2017-09-12T13:19:11.279Z,4940
2017-09-12T13:20:33.039Z,5580
2017-09-12T13:21:34.500Z,5660
2017-09-12T13:22:56.004Z,6036
2017-09-12T13:23:57.422Z,8288
2017-09-12T13:25:18.950Z,9660
2017-09-12T13:26:20.361Z,10392
2017-09-12T13:27:41.872Z,9900
2017-09-12T13:28:43.283Z,9344
2017-09-12T13:30:05.299Z,7516
2017-09-12T13:31:06.715Z,8028
2017-09-12T13:32:28.223Z,6404
2017-09-12T13:33:29.634Z,5224
2017-09-12T13:34:51.173Z,5820
2017-09-12T13:35:52.587Z,6632
2017-09-12T13:37:14.136Z,8780
2017-09-12T13:38:15.549Z,7584
2017-09-12T13:39:37.109Z,5576
2017-09-12T13:40:38.498Z,4976
2017-09-12T13:42:00.527Z,4536
2017-09-12T13:43:01.935Z,4708
2017-09-12T13:44:23.473Z,5112
2017-09-12T13:45:24.890Z,5192
2017-09-12T13:46:47.911Z,5004
2017-09-12T13:47:49.367Z,5020
2017-09-12T13:49:10.880Z,5100
2017-09-12T13:50:12.353Z,5004
2017-09-12T13:51:33.936Z,5644
2017-09-12T13:52:35.392Z,7064
2017-09-12T13:53:56.932Z,7800
2017-09-12T13:54:58.351Z,8656
2017-09-12T13:56:19.963Z,8400
2017-09-12T13:57:21.379Z,8596
2017-09-12T13:58:43.021Z,7188
2017-09-12T13:59:44.435Z,5900
2017-09-12T14:01:05.959Z,5840
2017-09-12T14:02:07.370Z,6016
2017-09-12T14:03:28.878Z,6196
2017-09-12T14:04:30.381Z,5236
2017-09-12T14:05:52.399Z,4664
2017-09-12T14:06:53.851Z,4472
2017-09-12T14:08:15.420Z,4028
2017-09-12T14:09:16.890Z,3656
2017-09-12T14:10:38.520Z,2980
2017-09-12T14:11:39.932Z,2464
2017-09-12T14:13:01.538Z,1928
2017-09-12T14:14:02.948Z,1604
2017-09-12T14:15:24.472Z,1308
2017-09-12T14:16:25.883Z,1028
2017-09-12T14:17:47.578Z,812
2017-09-12T14:18:49.014Z,668
2017-09-12T14:20:11.035Z,480
2017-09-12T14:21:12.442Z,432
2017-09-12T14:22:33.986Z,584
2017-09-12T14:23:35.488Z,688
2017-09-12T14:24:57.044Z,900
2017-09-12T14:25:58.568Z,1140
2017-09-12T14:27:20.072Z,1492
2017-09-12T14:28:21.632Z,1792
2017-09-12T14:29:43.154Z,2620
2017-09-12T14:30:44.601Z,3688
2017-09-12T14:32:06.231Z,6128
2017-09-12T14:33:07.800Z,7372
2017-09-12T14:34:29.353Z,7612
2017-09-12T14:35:30.907Z,8388
2017-09-12T14:36:52.538Z,9684
2017-09-12T14:37:53.991Z,9912
2017-09-12T14:39:15.604Z,10060
2017-09-12T14:40:17.014Z,10412
2017-09-12T14:41:38.614Z,10728
2017-09-12T14:42:40.055Z,10352
2017-09-12T14:44:01.652Z,9260
2017-09-12T14:45:03.061Z,8316
2017-09-12T14:46:26.189Z,6948
2017-09-12T14:47:27.598Z,6048
2017-09-12T14:48:49.108Z,5640
2017-09-12T14:49:50.512Z,5652
2017-09-12T14:51:12.619Z,4856
2017-09-12T14:52:14.092Z,4156
2017-09-12T14:53:35.681Z,3600
2017-09-12T14:54:37.090Z,3656
2017-09-12T14:55:59.071Z,4168
2017-09-12T14:57:00.584Z,4476
2017-09-12T14:58:22.135Z,4940
2017-09-12T14:59:23.552Z,5204
2017-09-12T15:00:45.218Z,5520
2017-09-12T15:01:46.672Z,5772
2017-09-12T15:03:08.199Z,5516
2017-09-12T15:03:44.245Z,5416
2017-09-12T15:04:45.708Z,5352
2017-09-12T15:06:07.345Z,5492
2017-09-12T15:07:08.763Z,5684
2017-09-12T15:08:30.394Z,5768
2017-09-12T15:09:31.859Z,5608
2017-09-12T15:10:53.502Z,5244
2017-09-12T15:11:54.943Z,5012
2017-09-12T15:13:16.485Z,4792
2017-09-12T15:14:17.948Z,4836
2017-09-12T15:15:49.471Z,4804
2017-09-12T15:16:50.884Z,4896
2017-09-12T15:18:12.435Z,4992
2017-09-12T15:19:13.942Z,4980
2017-09-12T15:20:35.462Z,4696
2017-09-12T15:21:36.894Z,4416
2017-09-12T15:22:58.393Z,4172
2017-09-12T15:23:59.886Z,4056
2017-09-12T15:25:21.389Z,3644
2017-09-12T15:26:22.797Z,3360
2017-09-12T15:27:44.316Z,3084
2017-09-12T15:28:45.728Z,2924
2017-09-12T15:30:07.226Z,2776
2017-09-12T15:31:08.636Z,2680
2017-09-12T15:32:30.152Z,2592
2017-09-12T15:33:31.566Z,2544
2017-09-12T15:34:53.063Z,2508
2017-09-12T15:35:54.499Z,2492
2017-09-12T15:37:16.020Z,2484
2017-09-12T15:38:17.432Z,2484
2017-09-12T15:39:38.927Z,2488
2017-09-12T15:40:40.340Z,2476
2017-09-12T15:42:01.859Z,2460
2017-09-12T15:43:03.272Z,2444
2017-09-12T15:44:24.773Z,2444
2017-09-12T15:45:26.186Z,2456
2017-09-12T15:46:47.707Z,2624
2017-09-12T15:47:49.120Z,2768
2017-09-12T15:49:10.622Z,2940
2017-09-12T15:50:12.031Z,3076
2017-09-12T15:51:33.549Z,2868
2017-09-12T15:52:34.962Z,2744
2017-09-12T15:53:56.460Z,2516
2017-09-12T15:54:57.869Z,2488
2017-09-12T15:56:19.387Z,2404
2017-09-12T15:57:20.800Z,2192
2017-09-12T15:58:42.296Z,1984
2017-09-12T15:59:43.705Z,1952
2017-09-12T16:01:05.227Z,1948
2017-09-12T16:02:06.639Z,1832
2017-09-12T16:03:28.137Z,1596
2017-09-12T16:04:29.547Z,1476
2017-09-12T16:05:51.083Z,1360
2017-09-12T16:06:52.495Z,1332
2017-09-12T16:08:13.992Z,1360
2017-09-12T16:09:15.400Z,1464
2017-09-12T16:10:36.905Z,1584
2017-09-12T16:11:38.313Z,1652
2017-09-12T16:12:59.828Z,1668
2017-09-12T16:14:01.239Z,1696
2017-09-12T16:15:22.737Z,1800
2017-09-12T16:16:24.148Z,1884
2017-09-12T16:17:45.664Z,1932
2017-09-12T16:18:47.075Z,1976
2017-09-12T16:20:08.570Z,2192
2017-09-12T16:21:09.979Z,2364